sensor_id;sensor_type;location;lat;lon;timestamp;pressure;altitude;pressure_sealevel;temperature;humidity
42859;BME280;28505;56.970;40.998;2024-01-11T00:01:15;98154.22;;;-12.94;100.00
42859;BME280;28505;56.970;40.998;2024-01-11T00:06:43;98138.94;;;-12.82;100.00
42859;BME280;28505;56.970;40.998;2024-01-11T00:12:07;98109.22;;;-12.80;100.00
42859;BME280;28505;56.970;40.998;2024-01-11T00:17:29;98081.53;;;-12.73;100.00
42859;BME280;28505;56.970;40.998;2024-01-11T00:22:51;98049.81;;;-12.68;100.00
42859;BME280;28505;56.970;40.998;2024-01-11T00:28:13;98042.84;;;-12.67;100.00
42859;BME280;28505;56.970;40.998;2024-01-11T00:33:35;98015.34;;;-12.55;100.00
42859;BME280;28505;56.970;40.998;2024-01-11T00:38:58;98001.56;;;-12.56;100.00
42859;BME280;28505;56.970;40.998;2024-01-11T00:44:23;97973.41;;;-12.59;100.00
42859;BME280;28505;56.970;40.998;2024-01-11T00:49:48;97959.06;;;-12.48;100.00
42859;BME280;28505;56.970;40.998;2024-01-11T00:55:11;97912.94;;;-12.46;100.00
42859;BME280;28505;56.970;40.998;2024-01-11T01:00:33;97901.38;;;-12.37;100.00
42859;BME280;28505;56.970;40.998;2024-01-11T01:05:56;97882.41;;;-12.31;100.00
42859;BME280;28505;56.970;40.998;2024-01-11T01:11:18;97868.03;;;-12.27;100.00
42859;BME280;28505;56.970;40.998;2024-01-11T01:16:41;97859.06;;;-12.17;100.00
42859;BME280;28505;56.970;40.998;2024-01-11T01:22:03;97812.53;;;-12.25;100.00
42859;BME280;28505;56.970;40.998;2024-01-11T01:27:25;97798.16;;;-12.21;100.00
42859;BME280;28505;56.970;40.998;2024-01-11T01:32:47;97782.94;;;-12.11;100.00
42859;BME280;28505;56.970;40.998;2024-01-11T01:38:10;97749.19;;;-12.11;100.00
42859;BME280;28505;56.970;40.998;2024-01-11T01:43:32;97722.59;;;-12.13;100.00
42859;BME280;28505;56.970;40.998;2024-01-11T01:48:56;97708.41;;;-12.04;100.00
42859;BME280;28505;56.970;40.998;2024-01-11T01:54:20;97696.00;;;-11.95;100.00
42859;BME280;28505;56.970;40.998;2024-01-11T01:59:43;97678.22;;;-11.92;100.00
42859;BME280;28505;56.970;40.998;2024-01-11T02:05:08;97656.22;;;-11.89;100.00
42859;BME280;28505;56.970;40.998;2024-01-11T02:10:32;97620.28;;;-11.99;100.00
42859;BME280;28505;56.970;40.998;2024-01-11T02:15:55;97591.50;;;-11.97;100.00
42859;BME280;28505;56.970;40.998;2024-01-11T02:21:18;97587.81;;;-11.83;100.00
42859;BME280;28505;56.970;40.998;2024-01-11T02:26:59;97565.78;;;-11.81;100.00
42859;BME280;28505;56.970;40.998;2024-01-11T02:32:22;97540.41;;;-11.79;100.00
42859;BME280;28505;56.970;40.998;2024-01-11T02:37:46;97508.63;;;-11.81;100.00
42859;BME280;28505;56.970;40.998;2024-01-11T02:43:10;97482.22;;;-11.77;100.00
42859;BME280;28505;56.970;40.998;2024-01-11T02:48:32;97482.53;;;-11.67;100.00
42859;BME280;28505;56.970;40.998;2024-01-11T02:53:54;97470.13;;;-11.65;100.00
42859;BME280;28505;56.970;40.998;2024-01-11T02:59:16;97440.09;;;-11.61;100.00
42859;BME280;28505;56.970;40.998;2024-01-11T03:04:39;97430.31;;;-11.59;100.00
42859;BME280;28505;56.970;40.998;2024-01-11T03:10:01;97413.84;;;-11.53;100.00
42859;BME280;28505;56.970;40.998;2024-01-11T03:15:24;97388.06;;;-11.55;100.00
42859;BME280;28505;56.970;40.998;2024-01-11T03:20:47;97380.44;;;-11.49;100.00
42859;BME280;28505;56.970;40.998;2024-01-11T03:26:16;97349.00;;;-11.48;100.00
42859;BME280;28505;56.970;40.998;2024-01-11T03:31:41;97331.19;;;-11.44;100.00
42859;BME280;28505;56.970;40.998;2024-01-11T03:37:04;97306.41;;;-11.47;100.00
42859;BME280;28505;56.970;40.998;2024-01-11T03:42:27;97286.75;;;-11.43;100.00
42859;BME280;28505;56.970;40.998;2024-01-11T03:47:49;97268.41;;;-11.48;100.00
42859;BME280;28505;56.970;40.998;2024-01-11T03:53:12;97267.34;;;-11.40;100.00
42859;BME280;28505;56.970;40.998;2024-01-11T03:58:36;97261.41;;;-11.29;100.00
42859;BME280;28505;56.970;40.998;2024-01-11T04:04:04;97251.13;;;-11.24;100.00
42859;BME280;28505;56.970;40.998;2024-01-11T04:09:26;97243.34;;;-11.24;100.00
42859;BME280;28505;56.970;40.998;2024-01-11T04:14:49;97191.16;;;-11.41;100.00
42859;BME280;28505;56.970;40.998;2024-01-11T04:20:11;97194.66;;;-11.35;100.00
42859;BME280;28505;56.970;40.998;2024-01-11T04:25:33;97206.06;;;-11.18;100.00
42859;BME280;28505;56.970;40.998;2024-01-11T04:30:56;97175.59;;;-11.29;100.00
42859;BME280;28505;56.970;40.998;2024-01-11T04:36:18;97175.53;;;-11.11;100.00
42859;BME280;28505;56.970;40.998;2024-01-11T04:41:40;97169.53;;;-11.11;100.00
42859;BME280;28505;56.970;40.998;2024-01-11T04:47:02;97154.13;;;-11.13;100.00
42859;BME280;28505;56.970;40.998;2024-01-11T04:52:25;97125.88;;;-11.21;100.00
42859;BME280;28505;56.970;40.998;2024-01-11T04:57:47;97146.03;;;-10.93;100.00
42859;BME280;28505;56.970;40.998;2024-01-11T05:03:09;97154.16;;;-10.89;100.00
42859;BME280;28505;56.970;40.998;2024-01-11T05:08:32;97129.50;;;-10.87;100.00
42859;BME280;28505;56.970;40.998;2024-01-11T05:13:55;97101.34;;;-11.01;100.00
42859;BME280;28505;56.970;40.998;2024-01-11T05:19:17;97098.75;;;-10.90;100.00
42859;BME280;28505;56.970;40.998;2024-01-11T05:24:42;97093.75;;;-10.79;100.00
42859;BME280;28505;56.970;40.998;2024-01-11T05:30:05;97064.91;;;-10.90;100.00
42859;BME280;28505;56.970;40.998;2024-01-11T05:35:27;97052.94;;;-10.79;100.00
42859;BME280;28505;56.970;40.998;2024-01-11T05:40:49;97051.88;;;-10.66;100.00
42859;BME280;28505;56.970;40.998;2024-01-11T05:46:12;97055.19;;;-10.59;100.00
42859;BME280;28505;56.970;40.998;2024-01-11T05:51:34;97056.97;;;-10.48;100.00
42859;BME280;28505;56.970;40.998;2024-01-11T05:56:57;97033.06;;;-10.45;100.00
42859;BME280;28505;56.970;40.998;2024-01-11T06:02:21;97033.91;;;-10.27;100.00
42859;BME280;28505;56.970;40.998;2024-01-11T06:07:44;97040.03;;;-10.05;100.00
42859;BME280;28505;56.970;40.998;2024-01-11T06:13:07;97034.75;;;-10.10;100.00
42859;BME280;28505;56.970;40.998;2024-01-11T06:18:30;97015.56;;;-10.04;100.00
42859;BME280;28505;56.970;40.998;2024-01-11T06:23:53;97024.44;;;-9.88;100.00
42859;BME280;28505;56.970;40.998;2024-01-11T06:29:15;97031.09;;;-9.80;100.00
42859;BME280;28505;56.970;40.998;2024-01-11T06:34:38;96997.75;;;-9.78;100.00
42859;BME280;28505;56.970;40.998;2024-01-11T06:40:06;97000.56;;;-9.51;100.00
42859;BME280;28505;56.970;40.998;2024-01-11T06:45:30;97010.91;;;-9.39;100.00
42859;BME280;28505;56.970;40.998;2024-01-11T06:50:52;97015.88;;;-9.21;100.00
42859;BME280;28505;56.970;40.998;2024-01-11T06:56:19;97009.84;;;-9.05;100.00
42859;BME280;28505;56.970;40.998;2024-01-11T07:01:43;97016.78;;;-8.93;100.00
42859;BME280;28505;56.970;40.998;2024-01-11T07:07:08;97012.47;;;-8.66;100.00
42859;BME280;28505;56.970;40.998;2024-01-11T07:12:31;97017.81;;;-8.56;100.00
42859;BME280;28505;56.970;40.998;2024-01-11T07:17:54;96993.75;;;-8.58;100.00
42859;BME280;28505;56.970;40.998;2024-01-11T07:23:17;96990.09;;;-8.57;100.00
42859;BME280;28505;56.970;40.998;2024-01-11T07:28:39;97017.53;;;-8.32;100.00
42859;BME280;28505;56.970;40.998;2024-01-11T07:34:02;97015.03;;;-8.22;100.00
42859;BME280;28505;56.970;40.998;2024-01-11T07:39:28;97015.69;;;-8.10;100.00
42859;BME280;28505;56.970;40.998;2024-01-11T07:44:55;97042.09;;;-7.84;100.00
42859;BME280;28505;56.970;40.998;2024-01-11T07:50:18;97073.56;;;-7.52;100.00
42859;BME280;28505;56.970;40.998;2024-01-11T07:55:40;97086.91;;;-7.75;100.00
42859;BME280;28505;56.970;40.998;2024-01-11T08:01:03;97090.75;;;-7.83;100.00
42859;BME280;28505;56.970;40.998;2024-01-11T08:06:26;97106.94;;;-7.86;100.00
42859;BME280;28505;56.970;40.998;2024-01-11T08:11:48;97115.69;;;-8.19;100.00
42859;BME280;28505;56.970;40.998;2024-01-11T08:17:13;97153.06;;;-8.19;100.00
42859;BME280;28505;56.970;40.998;2024-01-11T08:22:38;97145.00;;;-8.34;100.00
42859;BME280;28505;56.970;40.998;2024-01-11T08:28:01;97154.09;;;-8.42;100.00
42859;BME280;28505;56.970;40.998;2024-01-11T08:33:27;97156.25;;;-8.56;100.00
42859;BME280;28505;56.970;40.998;2024-01-11T08:38:50;97155.59;;;-8.80;100.00
42859;BME280;28505;56.970;40.998;2024-01-11T08:44:12;97148.91;;;-8.92;100.00
42859;BME280;28505;56.970;40.998;2024-01-11T08:49:40;97146.03;;;-9.08;100.00
42859;BME280;28505;56.970;40.998;2024-01-11T08:55:03;97175.53;;;-8.74;100.00
42859;BME280;28505;56.970;40.998;2024-01-11T09:00:26;97173.38;;;-9.27;100.00
42859;BME280;28505;56.970;40.998;2024-01-11T09:05:49;97190.59;;;-9.26;100.00
42859;BME280;28505;56.970;40.998;2024-01-11T09:11:11;97195.19;;;-9.74;100.00
42859;BME280;28505;56.970;40.998;2024-01-11T09:16:34;97200.88;;;-9.88;100.00
42859;BME280;28505;56.970;40.998;2024-01-11T09:21:58;97230.00;;;-9.92;100.00
42859;BME280;28505;56.970;40.998;2024-01-11T09:27:20;97231.00;;;-9.69;100.00
42859;BME280;28505;56.970;40.998;2024-01-11T09:32:46;97239.06;;;-9.71;100.00
42859;BME280;28505;56.970;40.998;2024-01-11T09:38:10;97255.94;;;-9.85;100.00
42859;BME280;28505;56.970;40.998;2024-01-11T09:43:34;97222.88;;;-9.96;100.00
42859;BME280;28505;56.970;40.998;2024-01-11T09:48:58;97273.03;;;-9.66;100.00
42859;BME280;28505;56.970;40.998;2024-01-11T09:54:25;97265.81;;;-9.87;100.00
42859;BME280;28505;56.970;40.998;2024-01-11T09:59:49;97279.44;;;-9.97;100.00
42859;BME280;28505;56.970;40.998;2024-01-11T10:05:13;97266.06;;;-10.35;100.00
42859;BME280;28505;56.970;40.998;2024-01-11T10:10:38;97287.91;;;-10.37;100.00
42859;BME280;28505;56.970;40.998;2024-01-11T10:16:09;97299.25;;;-10.19;100.00
42859;BME280;28505;56.970;40.998;2024-01-11T10:21:38;97301.75;;;-10.36;100.00
42859;BME280;28505;56.970;40.998;2024-01-11T10:27:03;97300.13;;;-10.49;100.00
42859;BME280;28505;56.970;40.998;2024-01-11T10:32:28;97308.50;;;-10.58;100.00
42859;BME280;28505;56.970;40.998;2024-01-11T10:37:51;97314.84;;;-10.54;100.00
42859;BME280;28505;56.970;40.998;2024-01-11T10:43:21;97304.56;;;-10.38;100.00
42859;BME280;28505;56.970;40.998;2024-01-11T10:48:45;97323.72;;;-10.32;100.00
42859;BME280;28505;56.970;40.998;2024-01-11T10:54:13;97305.75;;;-10.64;100.00
42859;BME280;28505;56.970;40.998;2024-01-11T10:59:37;97298.38;;;-10.78;100.00
42859;BME280;28505;56.970;40.998;2024-01-11T11:05:04;97336.88;;;-10.57;100.00
42859;BME280;28505;56.970;40.998;2024-01-11T11:10:28;97304.63;;;-10.98;100.00
42859;BME280;28505;56.970;40.998;2024-01-11T11:15:53;97332.50;;;-10.87;100.00
42859;BME280;28505;56.970;40.998;2024-01-11T11:21:15;97358.69;;;-11.00;100.00
42859;BME280;28505;56.970;40.998;2024-01-11T11:26:37;97363.28;;;-11.02;100.00
42859;BME280;28505;56.970;40.998;2024-01-11T11:32:03;97349.03;;;-11.29;100.00
42859;BME280;28505;56.970;40.998;2024-01-11T11:37:30;97344.41;;;-11.46;100.00
42859;BME280;28505;56.970;40.998;2024-01-11T11:42:56;97379.94;;;-11.40;100.00
42859;BME280;28505;56.970;40.998;2024-01-11T11:54:02;97387.50;;;-11.57;100.00
42859;BME280;28505;56.970;40.998;2024-01-11T11:59:25;97390.16;;;-11.63;100.00
42859;BME280;28505;56.970;40.998;2024-01-11T12:04:47;97394.50;;;-11.57;100.00
42859;BME280;28505;56.970;40.998;2024-01-11T12:10:10;97410.91;;;-11.57;100.00
42859;BME280;28505;56.970;40.998;2024-01-11T12:15:32;97399.91;;;-11.84;100.00
42859;BME280;28505;56.970;40.998;2024-01-11T12:20:55;97410.03;;;-11.94;100.00
42859;BME280;28505;56.970;40.998;2024-01-11T12:26:32;97440.78;;;-12.16;100.00
42859;BME280;28505;56.970;40.998;2024-01-11T12:31:59;97409.03;;;-12.56;100.00
42859;BME280;28505;56.970;40.998;2024-01-11T12:37:24;97433.50;;;-12.39;100.00
42859;BME280;28505;56.970;40.998;2024-01-11T12:42:46;97416.88;;;-12.69;100.00
42859;BME280;28505;56.970;40.998;2024-01-11T12:48:11;97434.81;;;-12.61;100.00
42859;BME280;28505;56.970;40.998;2024-01-11T12:53:36;97463.75;;;-12.58;100.00
42859;BME280;28505;56.970;40.998;2024-01-11T12:59:11;97464.75;;;-12.65;100.00
42859;BME280;28505;56.970;40.998;2024-01-11T13:04:34;97480.38;;;-12.79;100.00
42859;BME280;28505;56.970;40.998;2024-01-11T13:09:56;97478.66;;;-13.05;100.00
42859;BME280;28505;56.970;40.998;2024-01-11T13:15:18;97466.34;;;-13.16;100.00
42859;BME280;28505;56.970;40.998;2024-01-11T13:20:41;97493.41;;;-12.99;100.00
42859;BME280;28505;56.970;40.998;2024-01-11T13:26:04;97490.06;;;-13.12;100.00
42859;BME280;28505;56.970;40.998;2024-01-11T13:31:28;97490.06;;;-13.19;100.00
42859;BME280;28505;56.970;40.998;2024-01-11T13:36:50;97489.72;;;-13.36;100.00
42859;BME280;28505;56.970;40.998;2024-01-11T13:42:12;97509.44;;;-13.35;100.00
42859;BME280;28505;56.970;40.998;2024-01-11T13:47:37;97497.69;;;-13.71;100.00
42859;BME280;28505;56.970;40.998;2024-01-11T13:53:00;97513.22;;;-13.77;100.00
42859;BME280;28505;56.970;40.998;2024-01-11T13:58:23;97533.94;;;-13.77;100.00
42859;BME280;28505;56.970;40.998;2024-01-11T14:03:46;97540.38;;;-13.60;100.00
42859;BME280;28505;56.970;40.998;2024-01-11T14:09:09;97533.94;;;-13.90;100.00
42859;BME280;28505;56.970;40.998;2024-01-11T14:14:31;97514.78;;;-14.09;100.00
42859;BME280;28505;56.970;40.998;2024-01-11T14:19:56;97547.50;;;-13.82;100.00
42859;BME280;28505;56.970;40.998;2024-01-11T14:25:23;97557.50;;;-13.59;100.00
42859;BME280;28505;56.970;40.998;2024-01-11T14:30:46;97554.69;;;-13.57;100.00
42859;BME280;28505;56.970;40.998;2024-01-11T14:36:08;97548.47;;;-13.96;100.00
42859;BME280;28505;56.970;40.998;2024-01-11T14:41:31;97551.66;;;-13.87;100.00
42859;BME280;28505;56.970;40.998;2024-01-11T14:46:54;97553.03;;;-14.05;100.00
42859;BME280;28505;56.970;40.998;2024-01-11T14:52:35;97547.84;;;-14.11;100.00
42859;BME280;28505;56.970;40.998;2024-01-11T14:57:57;97565.44;;;-13.80;100.00
42859;BME280;28505;56.970;40.998;2024-01-11T15:03:24;97588.75;;;-13.74;100.00
42859;BME280;28505;56.970;40.998;2024-01-11T15:08:47;97558.59;;;-14.08;100.00
42859;BME280;28505;56.970;40.998;2024-01-11T15:14:09;97592.53;;;-13.83;100.00
42859;BME280;28505;56.970;40.998;2024-01-11T15:19:34;97592.88;;;-13.99;100.00
42859;BME280;28505;56.970;40.998;2024-01-11T15:24:57;97589.66;;;-14.14;100.00
42859;BME280;28505;56.970;40.998;2024-01-11T15:30:20;97591.91;;;-14.40;100.00
42859;BME280;28505;56.970;40.998;2024-01-11T15:35:42;97607.63;;;-13.93;100.00
42859;BME280;28505;56.970;40.998;2024-01-11T15:41:07;97620.59;;;-13.86;100.00
42859;BME280;28505;56.970;40.998;2024-01-11T15:46:30;97621.59;;;-13.87;100.00
42859;BME280;28505;56.970;40.998;2024-01-11T15:51:53;97644.25;;;-13.96;100.00
42859;BME280;28505;56.970;40.998;2024-01-11T15:57:16;97664.59;;;-13.93;100.00
42859;BME280;28505;56.970;40.998;2024-01-11T16:02:39;97678.78;;;-13.82;100.00
42859;BME280;28505;56.970;40.998;2024-01-11T16:08:07;97677.69;;;-14.08;100.00
42859;BME280;28505;56.970;40.998;2024-01-11T16:13:29;97700.31;;;-13.82;100.00
42859;BME280;28505;56.970;40.998;2024-01-11T16:18:51;97689.03;;;-14.09;100.00
42859;BME280;28505;56.970;40.998;2024-01-11T16:24:14;97714.09;;;-13.75;100.00
42859;BME280;28505;56.970;40.998;2024-01-11T16:29:39;97715.22;;;-13.84;100.00
42859;BME280;28505;56.970;40.998;2024-01-11T16:35:02;97696.22;;;-14.04;100.00
42859;BME280;28505;56.970;40.998;2024-01-11T16:40:24;97717.28;;;-13.73;100.00
42859;BME280;28505;56.970;40.998;2024-01-11T16:45:47;97721.66;;;-14.14;100.00
42859;BME280;28505;56.970;40.998;2024-01-11T16:51:09;97713.81;;;-14.28;100.00
42859;BME280;28505;56.970;40.998;2024-01-11T16:56:33;97738.09;;;-13.94;100.00
42859;BME280;28505;56.970;40.998;2024-01-11T17:01:57;97745.91;;;-13.87;100.00
42859;BME280;28505;56.970;40.998;2024-01-11T17:07:20;97745.88;;;-13.94;100.00
42859;BME280;28505;56.970;40.998;2024-01-11T17:12:42;97751.31;;;-13.82;100.00
42859;BME280;28505;56.970;40.998;2024-01-11T17:18:05;97784.25;;;-13.70;100.00
42859;BME280;28505;56.970;40.998;2024-01-11T17:23:28;97771.06;;;-13.75;100.00
42859;BME280;28505;56.970;40.998;2024-01-11T17:28:52;97757.28;;;-13.82;100.00
42859;BME280;28505;56.970;40.998;2024-01-11T17:34:18;97786.13;;;-13.57;100.00
42859;BME280;28505;56.970;40.998;2024-01-11T17:39:40;97799.84;;;-13.63;100.00
42859;BME280;28505;56.970;40.998;2024-01-11T17:45:03;97805.88;;;-13.49;100.00
42859;BME280;28505;56.970;40.998;2024-01-11T17:50:26;97805.88;;;-13.49;100.00
42859;BME280;28505;56.970;40.998;2024-01-11T17:55:52;97805.38;;;-13.73;100.00
42859;BME280;28505;56.970;40.998;2024-01-11T18:01:25;97778.00;;;-13.82;100.00
42859;BME280;28505;56.970;40.998;2024-01-11T18:06:48;97815.47;;;-13.43;100.00
42859;BME280;28505;56.970;40.998;2024-01-11T18:12:11;97812.25;;;-13.45;100.00
42859;BME280;28505;56.970;40.998;2024-01-11T18:17:35;97818.84;;;-13.49;100.00
42859;BME280;28505;56.970;40.998;2024-01-11T18:23:02;97798.28;;;-13.51;100.00
42859;BME280;28505;56.970;40.998;2024-01-11T18:28:25;97801.38;;;-13.34;100.00
42859;BME280;28505;56.970;40.998;2024-01-11T18:33:48;97801.75;;;-13.37;100.00
42859;BME280;28505;56.970;40.998;2024-01-11T18:39:14;97818.34;;;-13.11;100.00
42859;BME280;28505;56.970;40.998;2024-01-11T18:44:37;97803.59;;;-13.24;100.00
42859;BME280;28505;56.970;40.998;2024-01-11T18:50:00;97857.16;;;-12.83;100.00
42859;BME280;28505;56.970;40.998;2024-01-11T18:55:24;97860.16;;;-12.80;100.00
42859;BME280;28505;56.970;40.998;2024-01-11T19:00:47;97864.31;;;-12.85;100.00
42859;BME280;28505;56.970;40.998;2024-01-11T19:06:09;97874.94;;;-12.80;100.00
42859;BME280;28505;56.970;40.998;2024-01-11T19:11:31;97893.91;;;-12.66;100.00
42859;BME280;28505;56.970;40.998;2024-01-11T19:16:53;97889.13;;;-12.69;100.00
42859;BME280;28505;56.970;40.998;2024-01-11T19:22:15;97890.56;;;-12.60;100.00
42859;BME280;28505;56.970;40.998;2024-01-11T19:27:37;97911.34;;;-12.54;100.00
42859;BME280;28505;56.970;40.998;2024-01-11T19:33:00;97939.28;;;-12.49;100.00
42859;BME280;28505;56.970;40.998;2024-01-11T19:38:27;97918.94;;;-12.52;100.00
42859;BME280;28505;56.970;40.998;2024-01-11T19:43:53;97927.50;;;-12.58;100.00
42859;BME280;28505;56.970;40.998;2024-01-11T19:49:17;97928.06;;;-12.63;100.00
42859;BME280;28505;56.970;40.998;2024-01-11T19:54:40;97937.63;;;-12.70;100.00
42859;BME280;28505;56.970;40.998;2024-01-11T20:00:02;97954.16;;;-12.78;100.00
42859;BME280;28505;56.970;40.998;2024-01-11T20:05:30;97947.38;;;-12.79;100.00
42859;BME280;28505;56.970;40.998;2024-01-11T20:10:52;97986.84;;;-12.90;100.00
42859;BME280;28505;56.970;40.998;2024-01-11T20:16:15;97990.00;;;-12.94;100.00
42859;BME280;28505;56.970;40.998;2024-01-11T20:21:37;97983.97;;;-13.02;100.00
42859;BME280;28505;56.970;40.998;2024-01-11T20:26:59;97991.59;;;-13.28;100.00
42859;BME280;28505;56.970;40.998;2024-01-11T20:32:25;98003.41;;;-13.26;100.00
42859;BME280;28505;56.970;40.998;2024-01-11T20:37:48;98014.06;;;-13.07;100.00
42859;BME280;28505;56.970;40.998;2024-01-11T20:43:10;98020.53;;;-13.25;100.00
42859;BME280;28505;56.970;40.998;2024-01-11T20:48:41;98036.75;;;-13.44;100.00
42859;BME280;28505;56.970;40.998;2024-01-11T20:54:04;98034.16;;;-13.44;100.00
42859;BME280;28505;56.970;40.998;2024-01-11T20:59:27;98012.78;;;-13.53;100.00
42859;BME280;28505;56.970;40.998;2024-01-11T21:04:51;98049.41;;;-13.56;100.00
42859;BME280;28505;56.970;40.998;2024-01-11T21:10:13;98027.25;;;-13.58;100.00
42859;BME280;28505;56.970;40.998;2024-01-11T21:15:36;98048.66;;;-13.71;100.00
42859;BME280;28505;56.970;40.998;2024-01-11T21:21:01;98044.00;;;-14.19;100.00
42859;BME280;28505;56.970;40.998;2024-01-11T21:26:27;98091.16;;;-13.87;100.00
42859;BME280;28505;56.970;40.998;2024-01-11T21:31:50;98074.72;;;-14.16;100.00
42859;BME280;28505;56.970;40.998;2024-01-11T21:37:12;98100.41;;;-13.99;100.00
42859;BME280;28505;56.970;40.998;2024-01-11T21:42:35;98098.22;;;-14.32;100.00
42859;BME280;28505;56.970;40.998;2024-01-11T21:47:57;98085.00;;;-14.81;100.00
42859;BME280;28505;56.970;40.998;2024-01-11T21:53:21;98145.63;;;-14.61;100.00
42859;BME280;28505;56.970;40.998;2024-01-11T21:58:47;98159.34;;;-14.31;100.00
42859;BME280;28505;56.970;40.998;2024-01-11T22:04:10;98160.84;;;-14.81;100.00
42859;BME280;28505;56.970;40.998;2024-01-11T22:09:33;98144.31;;;-15.41;100.00
42859;BME280;28505;56.970;40.998;2024-01-11T22:14:55;98182.78;;;-14.77;100.00
42859;BME280;28505;56.970;40.998;2024-01-11T22:20:17;98182.81;;;-15.23;100.00
42859;BME280;28505;56.970;40.998;2024-01-11T22:25:40;98175.75;;;-15.29;100.00
42859;BME280;28505;56.970;40.998;2024-01-11T22:31:03;98206.88;;;-14.99;100.00
42859;BME280;28505;56.970;40.998;2024-01-11T22:36:26;98209.56;;;-15.16;100.00
42859;BME280;28505;56.970;40.998;2024-01-11T22:41:50;98226.75;;;-15.23;100.00
42859;BME280;28505;56.970;40.998;2024-01-11T22:47:12;98221.97;;;-15.34;100.00
42859;BME280;28505;56.970;40.998;2024-01-11T22:52:34;98233.81;;;-15.48;100.00
42859;BME280;28505;56.970;40.998;2024-01-11T22:57:57;98228.44;;;-15.38;100.00
42859;BME280;28505;56.970;40.998;2024-01-11T23:03:19;98237.84;;;-16.24;100.00
42859;BME280;28505;56.970;40.998;2024-01-11T23:08:41;98228.13;;;-15.43;100.00
42859;BME280;28505;56.970;40.998;2024-01-11T23:14:03;98229.97;;;-15.83;100.00
42859;BME280;28505;56.970;40.998;2024-01-11T23:19:25;98240.06;;;-16.13;100.00
42859;BME280;28505;56.970;40.998;2024-01-11T23:24:48;98260.34;;;-15.93;100.00
42859;BME280;28505;56.970;40.998;2024-01-11T23:30:10;98258.16;;;-16.29;100.00
42859;BME280;28505;56.970;40.998;2024-01-11T23:35:33;98259.16;;;-16.46;100.00
42859;BME280;28505;56.970;40.998;2024-01-11T23:40:57;98278.19;;;-16.56;100.00
